.
WxDataArchive / Data Records for 2012-12-01
2012-11-30 December 2012 2012-12-02

Data Records for Saturday, 01 December 2012

Time	Temp	Chill	HIndex	Humid	Dewpt	 Wind 	HiWind	WindDir	Rain 	Barom 
-----	----	-----	------	-----	-----	------	------	-------	-----	----- 
00:00	37.0	37.0	37.0	80	31.4	0	1	112	0.00	30.187 
00:05	36.9	36.9	36.9	80	31.3	0	0	---	0.00	30.187 
00:10	36.6	36.6	36.6	81	31.3	0	0	---	0.00	30.187 
00:15	36.5	36.5	36.5	81	31.2	0	1	112	0.00	30.182 
00:20	36.3	36.3	36.3	81	31.0	0	3	112	0.00	30.182 
00:25	36.2	36.2	36.2	82	31.2	0	2	112	0.00	30.182 
00:30	36.0	36.0	36.0	82	31.0	0	1	112	0.00	30.179 
00:35	35.9	35.9	35.9	82	31.0	0	1	112	0.00	30.179 
00:40	35.6	35.6	35.6	82	30.7	0	0	---	0.00	30.179 
00:45	35.3	35.3	35.3	82	30.4	0	0	---	0.00	30.183 
00:50	35.0	35.0	35.0	82	30.1	0	0	---	0.00	30.183 
00:55	34.9	34.9	34.9	83	30.3	0	0	---	0.00	30.183 
01:00	34.9	34.9	34.9	84	30.6	0	1	112	0.00	30.192 
01:05	34.9	34.9	34.9	85	30.9	0	2	112	0.00	30.192 
01:10	35.0	35.0	35.0	85	31.0	1	3	112	0.00	30.192 
01:15	35.2	35.2	35.2	86	31.4	1	4	112	0.00	30.177 
01:20	35.3	35.3	35.3	86	31.5	1	3	112	0.00	30.177 
01:25	35.2	35.2	35.2	85	31.2	0	1	112	0.00	30.177 
01:30	35.0	35.0	35.0	86	31.2	0	1	112	0.00	30.204 
01:35	34.9	34.9	34.9	86	31.1	0	1	112	0.00	30.204 
01:40	34.9	34.9	34.9	86	31.1	0	2	112	0.00	30.204 
01:45	34.7	34.7	34.7	87	31.2	0	2	112	0.00	30.185 
01:50	34.7	34.7	34.7	87	31.2	0	4	112	0.00	30.185 
01:55	34.6	34.6	34.6	87	31.1	0	2	112	0.00	30.185 
02:00	34.4	34.4	34.4	87	30.9	0	0	---	0.00	30.192 
02:05	34.3	34.3	34.3	88	31.1	0	1	112	0.00	30.192 
02:10	34.3	34.3	34.3	88	31.1	0	2	112	0.00	30.192 
02:15	34.3	34.3	34.3	88	31.1	1	3	112	0.00	30.183 
02:20	34.1	34.1	34.1	88	30.9	0	2	112	0.00	30.183 
02:25	34.0	34.0	34.0	88	30.8	0	1	112	0.00	30.183 
02:30	33.8	33.8	33.8	89	30.9	0	3	112	0.00	30.192 
02:35	33.7	33.7	33.7	89	30.8	0	2	112	0.00	30.192 
02:40	33.5	33.5	33.5	89	30.6	1	2	112	0.00	30.192 
02:45	33.4	33.4	33.4	89	30.5	0	1	112	0.00	30.192 
02:50	33.2	33.2	33.2	90	30.6	0	0	---	0.00	30.192 
02:55	33.1	33.1	33.1	90	30.5	0	3	112	0.00	30.192 
03:00	32.9	32.9	32.9	90	30.3	1	4	112	0.00	30.201 
03:05	32.9	32.9	32.9	91	30.6	1	4	112	0.00	30.201 
03:10	32.9	32.9	32.9	91	30.6	1	4	112	0.00	30.201 
03:15	32.9	32.9	32.9	92	30.8	1	4	112	0.00	30.196 
03:20	33.1	33.1	33.1	92	31.0	1	4	112	0.00	30.196 
03:25	33.1	33.1	33.1	92	31.0	0	1	112	0.00	30.196 
03:30	33.2	33.2	33.2	93	31.4	0	3	112	0.00	30.204 
03:35	33.5	33.5	33.5	93	31.7	1	6	112	0.00	30.204 
03:40	33.7	33.7	33.7	93	31.9	2	4	90	0.00	30.204 
03:45	33.8	33.8	33.8	93	32.0	1	4	90	0.00	30.200 
03:50	34.0	34.0	34.0	93	32.2	1	4	90	0.00	30.200 
03:55	34.1	34.1	34.1	94	32.6	1	3	90	0.00	30.200 
04:00	34.3	34.3	34.3	94	32.8	1	3	90	0.00	30.195 
04:05	34.4	34.4	34.4	94	32.9	1	4	90	0.00	30.195 
04:10	34.4	34.4	34.4	94	32.9	1	3	90	0.00	30.195 
04:15	34.6	34.6	34.6	94	33.1	1	2	90	0.00	30.202 
04:20	34.7	34.7	34.7	94	33.2	1	3	90	0.00	30.202 
04:25	34.7	34.7	34.7	94	33.2	2	5	90	0.00	30.202 
04:30	34.9	34.9	34.9	94	33.4	1	4	90	0.00	30.201 
04:35	34.9	34.9	34.9	94	33.4	2	5	90	0.00	30.201 
04:40	35.0	35.0	35.0	95	33.7	2	5	112	0.00	30.201 
04:45	35.2	35.2	35.2	95	33.9	2	4	90	0.00	30.193 
04:50	35.2	35.2	35.2	95	33.9	2	4	90	0.00	30.193 
04:55	35.2	35.2	35.2	95	33.9	2	4	90	0.00	30.193 
05:00	35.3	35.3	35.3	95	34.0	1	4	90	0.00	30.206 
05:05	35.3	35.3	35.3	95	34.0	2	4	90	0.00	30.206 
05:10	35.3	35.3	35.3	95	34.0	2	3	90	0.00	30.206 
05:15	35.3	35.3	35.3	95	34.0	0	3	90	0.00	30.211 
05:20	35.5	35.5	35.5	95	34.2	0	2	90	0.00	30.211 
05:25	35.5	35.5	35.5	95	34.2	1	3	90	0.00	30.211 
05:30	35.5	35.5	35.5	95	34.2	1	4	90	0.00	30.210 
05:35	35.5	35.5	35.5	95	34.2	1	4	90	0.00	30.210 
05:40	35.5	35.5	35.5	95	34.2	1	4	90	0.00	30.210 
05:45	35.5	35.5	35.5	95	34.2	1	3	90	0.00	30.211 
05:50	35.3	35.3	35.3	95	34.0	1	3	90	0.00	30.211 
05:55	35.3	35.3	35.3	95	34.0	0	2	90	0.00	30.211 
06:00	35.3	35.3	35.3	95	34.0	1	3	90	0.00	30.212 
06:05	35.3	35.3	35.3	95	34.0	1	3	90	0.00	30.212 
06:10	35.3	35.3	35.3	95	34.0	1	4	90	0.00	30.212 
06:15	35.2	35.2	35.2	95	33.9	2	4	90	0.00	30.216 
06:20	35.0	35.0	35.0	95	33.7	2	5	90	0.00	30.216 
06:25	35.0	35.0	35.0	95	33.7	1	3	90	0.00	30.216 
06:30	35.0	35.0	35.0	95	33.7	2	5	90	0.00	30.217 
06:35	35.0	35.0	35.0	95	33.7	2	4	90	0.00	30.217 
06:40	34.9	34.9	34.9	96	33.9	1	3	90	0.00	30.217 
06:45	34.7	34.7	34.7	95	33.4	1	3	90	0.00	30.217 
06:50	34.6	34.6	34.6	95	33.3	1	3	90	0.00	30.217 
06:55	34.4	34.4	34.4	95	33.1	3	5	90	0.00	30.217 
07:00	34.3	34.3	34.3	96	33.3	1	2	90	0.00	30.215 
07:05	34.3	34.3	34.3	96	33.3	1	5	68	0.00	30.215 
07:10	34.3	34.3	34.3	96	33.3	2	3	68	0.00	30.215 
07:15	34.3	34.3	34.3	96	33.3	1	4	68	0.00	30.222 
07:20	34.3	34.3	34.3	96	33.3	1	4	68	0.00	30.222 
07:25	34.3	34.3	34.3	96	33.3	1	3	68	0.00	30.222 
07:30	34.4	34.4	34.4	96	33.4	2	4	68	0.00	30.221 
07:35	34.4	34.4	34.4	96	33.4	1	3	68	0.00	30.221 
07:40	34.6	34.6	34.6	96	33.6	1	3	68	0.00	30.221 
07:45	34.6	34.6	34.6	96	33.6	1	3	68	0.00	30.228 
07:50	34.7	34.7	34.7	96	33.7	1	3	68	0.00	30.228 
07:55	34.7	34.7	34.7	96	33.7	2	5	68	0.00	30.228 
08:00	34.7	34.7	34.7	96	33.7	1	3	68	0.00	30.217 
08:05	34.6	34.6	34.6	96	33.6	2	4	68	0.00	30.217 
08:10	34.6	34.6	34.6	96	33.6	1	3	68	0.00	30.217 
08:15	34.6	34.6	34.6	96	33.6	2	5	68	0.00	30.218 
08:20	34.4	34.4	34.4	96	33.4	1	4	112	0.00	30.218 
08:25	34.4	34.4	34.4	96	33.4	1	3	90	0.00	30.218 
08:30	34.6	34.6	34.6	96	33.6	1	3	90	0.00	30.219 
08:35	34.6	34.6	34.6	96	33.6	1	4	90	0.00	30.219 
08:40	34.4	34.4	34.4	96	33.4	2	4	90	0.00	30.219 
08:45	34.4	34.4	34.4	96	33.4	1	4	90	0.00	30.221 
08:50	34.6	34.6	34.6	96	33.6	1	4	90	0.00	30.221 
08:55	34.7	34.7	34.7	96	33.7	0	2	90	0.00	30.221 
09:00	34.7	34.7	34.7	96	33.7	1	4	90	0.00	30.224 
09:05	34.7	34.7	34.7	96	33.7	1	3	90	0.00	30.224 
09:10	34.7	34.7	34.7	96	33.7	1	3	90	0.00	30.224 
09:15	34.7	34.7	34.7	96	33.7	0	2	90	0.00	30.223 
09:20	34.7	34.7	34.7	96	33.7	1	3	90	0.00	30.223 
09:25	34.9	34.9	34.9	96	33.9	1	4	90	0.00	30.223 
09:30	35.0	35.0	35.0	96	34.0	1	3	90	0.00	30.224 
09:35	35.0	35.0	35.0	96	34.0	1	4	90	0.00	30.224 
09:40	35.0	35.0	35.0	96	34.0	1	3	90	0.00	30.224 
09:45	35.0	35.0	35.0	96	34.0	1	3	90	0.00	30.231 
09:50	35.3	35.3	35.3	96	34.3	0	2	90	0.00	30.231 
09:55	35.6	35.6	35.6	96	34.6	0	3	90	0.00	30.231 
10:00	35.9	35.9	35.9	96	34.9	1	3	90	0.00	30.229 
10:05	36.0	36.0	36.0	96	35.0	1	4	90	0.00	30.229 
10:10	36.0	36.0	36.0	96	35.0	2	5	90	0.00	30.229 
10:15	36.2	36.2	36.2	96	35.2	1	5	90	0.00	30.230 
10:20	36.3	36.3	36.3	96	35.3	1	4	90	0.00	30.230 
10:25	36.5	36.5	36.5	96	35.5	0	2	90	0.00	30.230 
10:30	36.9	36.9	36.9	97	36.1	0	2	90	0.00	30.220 
10:35	37.3	37.3	37.3	97	36.5	0	3	90	0.00	30.220 
10:40	37.5	37.5	37.5	97	36.7	1	3	90	0.00	30.220 
10:45	37.6	37.6	37.6	97	36.8	1	3	90	0.00	30.217 
10:50	37.6	37.6	37.6	97	36.8	1	4	90	0.00	30.217 
10:55	37.8	37.8	37.8	97	37.0	2	3	90	0.00	30.217 
11:00	38.2	38.2	38.2	97	37.4	1	3	90	0.00	30.213 
11:05	38.3	38.3	38.3	97	37.5	1	4	90	0.00	30.213 
11:10	38.3	38.3	38.3	97	37.5	2	4	90	0.00	30.213 
11:15	38.5	38.5	38.5	97	37.7	1	3	90	0.00	30.204 
11:20	38.9	38.9	38.9	97	38.1	0	2	90	0.00	30.204 
11:25	39.3	39.3	39.3	97	38.5	0	2	90	0.00	30.204 
11:30	39.5	39.5	39.5	97	38.7	0	3	90	0.00	30.198 
11:35	39.6	39.6	39.6	97	38.8	0	2	90	0.00	30.198 
11:40	39.9	39.9	39.9	97	39.1	0	2	90	0.00	30.198 
11:45	40.6	40.6	40.6	97	39.8	1	3	90	0.00	30.183 
11:50	41.2	41.2	41.2	97	40.4	1	3	90	0.00	30.183 
11:55	41.5	41.5	41.5	97	40.7	0	2	90	0.00	30.183 
12:00	42.1	42.1	42.1	97	41.3	1	3	90	0.00	30.167 
12:05	42.6	42.6	42.6	97	41.8	1	3	90	0.00	30.167 
12:10	43.2	43.2	43.2	97	42.4	1	2	90	0.00	30.167 
12:15	43.8	43.8	43.8	97	43.0	0	2	90	0.00	30.164 
12:20	44.3	44.3	44.3	97	43.5	0	1	90	0.00	30.164 
12:25	44.9	44.9	44.9	97	44.1	0	3	90	0.00	30.164 
12:30	45.4	45.4	45.4	97	44.6	0	1	90	0.00	30.158 
12:35	45.7	45.7	45.7	97	44.9	0	0	---	0.00	30.158 
12:40	46.2	46.2	46.2	97	45.4	0	2	90	0.00	30.158 
12:45	46.7	46.7	46.7	97	45.9	0	2	90	0.00	30.145 
12:50	47.1	47.1	47.1	97	46.3	0	2	90	0.00	30.145 
12:55	47.7	47.7	47.7	97	46.9	0	2	90	0.00	30.145 
13:00	48.3	48.3	48.3	97	47.5	0	2	90	0.00	30.137 
13:05	48.9	48.9	48.9	97	48.1	1	2	90	0.00	30.137 
13:10	49.6	49.6	49.6	97	48.8	0	1	90	0.00	30.137 
13:15	50.4	50.4	50.4	96	49.3	0	1	90	0.00	30.126 
13:20	51.4	51.4	51.4	96	50.3	1	3	90	0.00	30.126 
13:25	52.6	52.6	52.6	95	51.2	1	5	90	0.00	30.126 
13:30	53.5	53.5	53.5	93	51.5	1	5	68	0.00	30.110 
13:35	53.9	53.9	53.9	91	51.3	1	4	248	0.00	30.110 
13:40	54.4	54.4	54.4	87	50.6	1	3	112	0.00	30.110 
13:45	54.8	54.8	54.8	84	50.1	1	6	68	0.00	30.105 
13:50	55.4	55.4	55.4	81	49.7	1	3	68	0.00	30.105 
13:55	56.0	56.0	56.0	79	49.6	1	5	68	0.00	30.105 
14:00	56.5	56.5	56.5	77	49.4	1	4	68	0.00	30.094 
14:05	56.9	56.9	56.9	76	49.4	1	4	68	0.00	30.094 
14:10	57.2	57.2	57.2	74	49.0	2	5	90	0.00	30.094 
14:15	57.5	57.5	57.5	73	48.9	1	6	68	0.00	30.092 
14:20	57.6	57.6	57.6	73	49.0	1	7	225	0.00	30.092 
14:25	57.8	57.8	57.8	73	49.2	1	3	90	0.00	30.092 
14:30	58.0	58.0	58.0	72	49.0	1	4	90	0.00	30.093 
14:35	58.1	58.1	58.1	72	49.1	1	5	68	0.00	30.093 
14:40	58.1	58.1	58.1	72	49.1	1	4	45	0.00	30.093 
14:45	58.3	58.3	58.3	71	48.9	1	6	90	0.00	30.093 
14:50	58.3	58.3	58.3	71	48.9	2	4	90	0.00	30.093 
14:55	58.4	58.4	58.4	71	49.0	1	7	68	0.00	30.093 
15:00	58.4	58.4	58.4	71	49.0	1	3	68	0.00	30.091 
15:05	58.6	58.6	58.6	71	49.2	2	7	68	0.00	30.091 
15:10	58.7	58.7	58.7	71	49.3	2	5	68	0.00	30.091 
15:15	58.9	58.9	58.9	72	49.9	1	3	0	0.00	30.087 
15:20	58.9	58.9	58.9	72	49.9	1	4	0	0.00	30.087 
15:25	58.9	58.9	58.9	72	49.9	1	3	68	0.00	30.087 
15:30	58.9	58.9	58.9	71	49.5	1	4	90	0.00	30.087 
15:35	59.0	59.0	59.0	71	49.6	1	4	90	0.00	30.087 
15:40	59.2	59.2	59.2	71	49.8	1	4	45	0.00	30.087 
15:45	59.3	59.3	59.3	71	49.9	2	6	90	0.00	30.076 
15:50	59.3	59.3	59.3	70	49.5	1	3	112	0.00	30.076 
15:55	59.3	59.3	59.3	71	49.9	0	3	112	0.00	30.076 
16:00	59.3	59.3	59.3	71	49.9	1	3	112	0.00	30.083 
16:05	59.3	59.3	59.3	71	49.9	1	2	112	0.00	30.083 
16:10	59.3	59.3	59.3	70	49.5	1	4	112	0.00	30.083 
16:15	59.3	59.3	59.3	70	49.5	1	3	112	0.00	30.080 
16:20	59.3	59.3	59.3	70	49.5	1	4	112	0.00	30.080 
16:25	59.3	59.3	59.3	70	49.5	2	6	112	0.00	30.080 
16:30	59.3	59.3	59.3	70	49.5	1	4	90	0.00	30.075 
16:35	59.3	59.3	59.3	70	49.5	1	4	90	0.00	30.075 
16:40	59.3	59.3	59.3	70	49.5	0	2	90	0.00	30.075 
16:45	59.3	59.3	59.3	71	49.9	0	2	90	0.00	30.077 
16:50	59.2	59.2	59.2	71	49.8	1	2	90	0.00	30.077 
16:55	59.2	59.2	59.2	71	49.8	1	2	90	0.00	30.077 
17:00	59.2	59.2	59.2	71	49.8	1	4	90	0.00	30.074 
17:05	59.0	59.0	59.0	71	49.6	0	2	90	0.00	30.074 
17:10	58.7	58.7	58.7	72	49.7	1	3	90	0.00	30.074 
17:15	58.6	58.6	58.6	72	49.6	1	4	90	0.00	30.075 
17:20	58.6	58.6	58.6	72	49.6	1	3	90	0.00	30.075 
17:25	58.4	58.4	58.4	72	49.4	1	3	90	0.00	30.075 
17:30	58.1	58.1	58.1	72	49.1	1	2	90	0.00	30.075 
17:35	58.1	58.1	58.1	72	49.1	2	4	90	0.00	30.075 
17:40	58.1	58.1	58.1	72	49.1	1	5	112	0.00	30.075 
17:45	58.0	58.0	58.0	72	49.0	1	4	90	0.00	30.074 
17:50	58.0	58.0	58.0	72	49.0	1	3	90	0.00	30.074 
17:55	57.8	57.8	57.8	71	48.5	2	5	90	0.00	30.074 
18:00	57.6	57.6	57.6	71	48.3	1	3	90	0.00	30.072 
18:05	57.5	57.5	57.5	71	48.2	2	4	90	0.00	30.072 
18:10	57.5	57.5	57.5	71	48.2	1	6	135	0.00	30.072 
18:15	57.3	57.3	57.3	71	48.0	1	4	90	0.00	30.071 
18:20	57.3	57.3	57.3	70	47.6	1	3	90	0.00	30.071 
18:25	57.2	57.2	57.2	70	47.5	1	4	90	0.00	30.071 
18:30	57.0	57.0	57.0	70	47.3	1	5	68	0.00	30.073 
18:35	57.0	57.0	57.0	70	47.3	1	4	90	0.00	30.073 
18:40	56.9	56.9	56.9	70	47.2	1	4	90	0.00	30.073 
18:45	56.9	56.9	56.9	69	46.8	2	5	112	0.00	30.063 
18:50	56.9	56.9	56.9	69	46.8	2	7	112	0.00	30.063 
18:55	56.9	56.9	56.9	69	46.8	2	6	68	0.00	30.063 
19:00	56.9	56.9	56.9	69	46.8	2	6	90	0.00	30.060 
19:05	57.0	57.0	57.0	68	46.5	3	6	90	0.00	30.060 
19:10	57.0	57.0	57.0	68	46.5	1	5	90	0.00	30.060 
19:15	56.9	56.9	56.9	68	46.4	3	9	68	0.00	30.060 
19:20	57.0	57.0	57.0	68	46.5	3	6	90	0.00	30.060 
19:25	57.0	57.0	57.0	68	46.5	3	7	112	0.00	30.060 
19:30	56.9	56.9	56.9	68	46.4	2	6	90	0.00	30.060 
19:35	56.9	56.9	56.9	68	46.4	3	7	90	0.00	30.060 
19:40	56.7	56.7	56.7	68	46.3	3	6	90	0.00	30.060 
19:45	56.6	56.6	56.6	69	46.5	3	6	90	0.00	30.055 
19:50	56.5	56.5	56.5	69	46.5	3	11	90	0.00	30.055 
19:55	56.3	56.3	56.3	69	46.3	2	7	112	0.00	30.055 
20:00	56.2	56.2	56.2	69	46.2	3	6	90	0.00	30.054 
20:05	56.0	56.0	56.0	69	46.0	2	6	90	0.00	30.054 
20:10	56.0	56.0	56.0	69	46.0	2	6	68	0.00	30.054 
20:15	55.9	55.9	55.9	69	45.9	2	6	90	0.00	30.058 
20:20	55.9	55.9	55.9	69	45.9	2	5	90	0.00	30.058 
20:25	55.7	55.7	55.7	69	45.7	2	7	270	0.00	30.058 
20:30	55.9	55.9	55.9	69	45.9	2	7	112	0.00	30.060 
20:35	55.7	55.7	55.7	69	45.7	2	6	68	0.00	30.060 
20:40	55.7	55.7	55.7	69	45.7	2	4	90	0.00	30.060 
20:45	55.7	55.7	55.7	69	45.7	2	6	90	0.00	30.061 
20:50	55.7	55.7	55.7	69	45.7	2	5	90	0.00	30.061 
20:55	55.7	55.7	55.7	69	45.7	2	5	90	0.00	30.061 
21:00	55.7	55.7	55.7	69	45.7	2	7	68	0.00	30.053 
21:05	55.6	55.6	55.6	69	45.6	2	9	45	0.00	30.053 
21:10	55.6	55.6	55.6	69	45.6	1	5	68	0.00	30.053 
21:15	55.6	55.6	55.6	69	45.6	2	6	68	0.00	30.047 
21:20	55.6	55.6	55.6	69	45.6	1	5	292	0.00	30.047 
21:25	55.6	55.6	55.6	69	45.6	1	6	68	0.00	30.047 
21:30	55.6	55.6	55.6	69	45.6	1	6	248	0.00	30.047 
21:35	55.6	55.6	55.6	69	45.6	2	7	90	0.00	30.047 
21:40	55.6	55.6	55.6	69	45.6	1	3	45	0.00	30.047 
21:45	55.6	55.6	55.6	69	45.6	2	4	90	0.00	30.044 
21:50	55.6	55.6	55.6	69	45.6	1	4	45	0.00	30.044 
21:55	55.7	55.7	55.7	69	45.7	2	5	270	0.00	30.044 
22:00	55.9	55.9	55.9	69	45.9	2	5	225	0.00	30.046 
22:05	55.9	55.9	55.9	69	45.9	1	5	22	0.00	30.046 
22:10	56.0	56.0	56.0	69	46.0	2	9	0	0.00	30.046 
22:15	56.0	56.0	56.0	69	46.0	1	3	315	0.00	30.044 
22:20	55.9	55.9	55.9	69	45.9	1	6	338	0.00	30.044 
22:25	55.9	55.9	55.9	69	45.9	2	7	45	0.00	30.044 
22:30	55.9	55.9	55.9	69	45.9	2	6	270	0.00	30.043 
22:35	55.9	55.9	55.9	69	45.9	1	4	22	0.00	30.043 
22:40	55.9	55.9	55.9	69	45.9	2	5	248	0.00	30.043 
22:45	56.0	56.0	56.0	69	46.0	2	6	90	0.00	30.043 
22:50	56.0	56.0	56.0	69	46.0	2	9	135	0.00	30.043 
22:55	56.2	56.2	56.2	69	46.2	2	6	270	0.00	30.043 
23:00	56.2	56.2	56.2	69	46.2	1	4	292	0.00	30.042 
23:05	56.2	56.2	56.2	69	46.2	1	6	248	0.00	30.042 
23:10	56.3	56.3	56.3	69	46.3	2	7	90	0.00	30.042 
23:15	56.3	56.3	56.3	69	46.3	2	10	248	0.00	30.033 
23:20	56.3	56.3	56.3	69	46.3	1	4	90	0.00	30.033 
23:25	56.3	56.3	56.3	68	45.9	1	5	45	0.00	30.033 
23:30	56.3	56.3	56.3	68	45.9	1	9	315	0.00	30.033 
23:35	56.5	56.5	56.5	68	46.1	1	4	225	0.00	30.033 
23:40	56.6	56.6	56.6	67	45.8	2	5	248	0.00	30.033 
23:45	56.6	56.6	56.6	67	45.8	1	3	248	0.00	30.029 
23:50	56.7	56.7	56.7	67	45.9	2	5	248	0.00	30.029 
23:55	56.7	56.7	56.7	66	45.5	2	5	22	0.00	30.029 

CoCoRaHS
IN-AL-39
A2 Web Hosting
Creative Commons License
GoDaddy
search engine by freefind advanced

loaded 2018-11-13 17:13:21 • last modified 2010-11-18 10:43:29
Privacy PolicyDisclaimer
• wx.awcolley.com is powered by PmWiki v.2002016 •
• all content (unless otherwise noted) © 2018 A W Colley